Terminal Aerodrome Forecast
Issued by NWS Medford, OR

Home | Current Version | Previous Version | Text Only | Print | Product List | Glossary On
Versions: 1 2 3 4 5 6 7 8 9 10 11 12 13 14
000
FTUS46 KMFR 241100 RRA
TAFMFR
TAF
KMFR 241149Z 2412/2512 25007KT P6SM -SHRA SCT025 OVC050
     FM241700 24008KT P6SM -SHRA SCT030 OVC050
     FM242200 30010KT P6SM -SHRA SCT035 BKN050 OVC150
     FM250500 VRB03KT P6SM -SHRA BKN025 OVC040=

USA.gov is the U.S. government's official web portal to all federal, state and local government web resources and services.